Stacja Pogody
Warszawa Praga-Północ

Szerokość 52°15'43"N Długość 21°01'22"E Wysokość 110m n.p.m.

 Aktualny METAR dla Warszawy

EPWA 160800Z VRB02KT CAVOK 14/07 Q1022 NOSIG
 
    
Stacja: Warszawa - Okęcie. Szerokość: 52°09N - Długość: 020°58E. Deklinacja magnetyczna: 5.54°E
Dzień miesiąca: 16, godzina: 08:00 UTC                                                           
Zmiany krótkotrwałe: brak istotnych zmian pogody w ciągu następnych 2 godzin                                                                                 
Wiatr: kierunek ° (zmienny), prędkość 3.7 km/h (1 w skali Beauforta)               
Widzialność:  ponad 10 km                                                                    
Temperatura: 14 °C                                                                          
Punkt rosy: 7 °C                                                                           
Ciśnienie względne: 1022 hPa